Time;durP1;ratioP1;P1;durP2;ratioP2;P2;SDS_P1;SDS_P2;PMS_P1;PMS_P2;Temp;Humidity;BMP_temperature;BMP_pressure;BME280_temperature;BME280_humidity;BME280_pressure;Samples;Min_cycle;Max_cycle;Signal;HPM_P1;HPM_P2
2022/11/17 00:01:40;;;;;;;;;6.00;3.00;;;;;-146.44;100.00;58906.56;5054951;28;45450;-55
2022/11/17 00:04:05;;;;;;;;;6.00;3.67;;;;;-146.44;100.00;58906.56;5055651;28;45590;-56
2022/11/17 00:06:30;;;;;;;;;7.00;2.67;;;;;-146.44;100.00;58906.56;5055136;28;55943;-56
2022/11/17 00:08:56;;;;;;;;;6.33;4.00;;;;;-146.44;100.00;58906.56;5055460;28;45370;-56
2022/11/17 00:11:21;;;;;;;;;7.00;6.00;;;;;-146.44;100.00;58906.56;5037030;28;45428;-56
2022/11/17 00:16:30;;;;;;;;;4.33;4.33;;;;;-146.44;100.00;58906.56;5055153;28;45928;-57
2022/11/17 00:21:40;;;;;;;;;3.33;3.33;;;;;-146.44;100.00;58906.56;5055282;28;45419;-56
2022/11/17 00:24:05;;;;;;;;;4.33;4.33;;;;;-146.44;100.00;58906.56;5049618;28;45483;-56
2022/11/17 00:26:32;;;;;;;;;4.67;4.67;;;;;-146.44;100.00;58906.56;5050833;28;45367;-57
2022/11/17 00:29:03;;;;;;;;;6.33;4.33;;;;;-146.44;100.00;58906.56;5058568;28;45448;-56
2022/11/17 00:34:18;;;;;;;;;6.33;4.67;;;;;-146.44;100.00;58906.56;5058721;28;45474;-55
2022/11/17 00:36:47;;;;;;;;;1.67;1.67;;;;;-146.44;100.00;58906.56;5058729;28;45767;-54
2022/11/17 00:39:14;;;;;;;;;8.00;6.00;;;;;-146.44;100.00;58906.56;5058457;28;45422;-57
2022/11/17 00:41:40;;;;;;;;;4.33;4.00;;;;;-146.44;100.00;58906.56;5058782;28;45423;-57
2022/11/17 00:44:06;;;;;;;;;6.00;2.00;;;;;-146.44;100.00;58906.56;5058448;28;45459;-57
2022/11/17 00:46:33;;;;;;;;;5.00;4.67;;;;;-146.44;100.00;58906.56;5058257;28;46012;-57
2022/11/17 00:48:58;;;;;;;;;4.00;3.00;;;;;-146.44;100.00;58906.56;5058266;28;45685;-56
2022/11/17 00:51:24;;;;;;;;;4.67;4.67;;;;;-146.44;100.00;58906.56;5058363;28;45446;-57
2022/11/17 00:53:50;;;;;;;;;5.00;5.00;;;;;-146.44;100.00;58906.56;5057773;28;45714;-57
2022/11/17 00:56:16;;;;;;;;;3.00;1.67;;;;;-146.44;100.00;58906.56;5058105;28;46282;-56
2022/11/17 00:58:42;;;;;;;;;4.67;3.67;;;;;-146.44;100.00;58906.56;5040214;28;45415;-54
2022/11/17 01:01:07;;;;;;;;;2.00;2.00;;;;;-146.44;100.00;58906.56;5058170;28;45372;-57
2022/11/17 01:03:34;;;;;;;;;4.33;4.00;;;;;-146.44;100.00;58906.56;5058427;28;45467;-57
2022/11/17 01:06:07;;;;;;;;;6.00;3.33;;;;;-146.44;100.00;58906.56;5058004;28;46243;-57
2022/11/17 01:08:33;;;;;;;;;7.67;1.67;;;;;-146.44;100.00;58906.56;5048816;28;45443;-57
2022/11/17 01:11:06;;;;;;;;;3.00;2.00;;;;;-146.44;100.00;58906.56;5052250;28;45344;-55
2022/11/17 01:13:31;;;;;;;;;4.67;4.67;;;;;-146.44;100.00;58906.56;5058120;28;45487;-57
2022/11/17 01:16:02;;;;;;;;;3.00;2.00;;;;;-146.44;100.00;58906.56;5057889;28;45414;-57
2022/11/17 01:18:27;;;;;;;;;3.00;1.00;;;;;-146.44;100.00;58906.56;5057944;28;45442;-56
2022/11/17 01:20:53;;;;;;;;;2.67;2.67;;;;;-146.44;100.00;58906.56;5058096;28;45415;-57
2022/11/17 01:23:18;;;;;;;;;3.33;3.00;;;;;-146.44;100.00;58906.56;5057447;28;52828;-57
2022/11/17 01:25:43;;;;;;;;;1.67;1.00;;;;;-146.44;100.00;58906.56;5043743;28;46270;-54
2022/11/17 01:28:09;;;;;;;;;2.00;1.00;;;;;-146.44;100.00;58906.56;5052793;28;45476;-55
2022/11/17 01:30:34;;;;;;;;;4.33;4.00;;;;;-146.44;100.00;58906.56;5052829;28;45404;-57
2022/11/17 01:32:59;;;;;;;;;2.33;2.00;;;;;-146.44;100.00;58906.56;5054372;28;45717;-57
2022/11/17 01:35:24;;;;;;;;;2.00;1.00;;;;;-146.44;100.00;58906.56;5049030;28;54907;-58
2022/11/17 01:37:50;;;;;;;;;3.00;1.67;;;;;-146.44;100.00;58906.56;5043859;28;45481;-57
2022/11/17 01:40:15;;;;;;;;;2.33;1.00;;;;;-146.44;100.00;58906.56;5044663;28;50581;-56
2022/11/17 01:42:40;;;;;;;;;4.00;2.00;;;;;-146.44;100.00;58906.56;5042224;28;45424;-57
2022/11/17 01:45:21;;;;;;;;;2.00;1.00;;;;;-146.44;100.00;58906.56;5057688;28;45989;-57
2022/11/17 01:48:01;;;;;;;;;2.33;0.67;;;;;-146.44;100.00;58906.56;5053055;28;45482;-56
2022/11/17 01:50:34;;;;;;;;;1.00;1.00;;;;;-146.44;100.00;58906.56;5037597;28;45440;-55
2022/11/17 01:53:03;;;;;;;;;0.33;0.33;;;;;-146.44;100.00;58906.56;5037387;28;45435;-54
2022/11/17 01:56:09;;;;;;;;;1.00;1.00;;;;;-146.44;100.00;58906.56;5031265;28;46235;-57
2022/11/17 01:58:40;;;;;;;;;1.33;1.33;;;;;-146.44;100.00;58906.56;5044120;28;45380;-58
2022/11/17 02:01:05;;;;;;;;;2.00;1.00;;;;;-146.44;100.00;58906.56;5057267;28;45401;-56
2022/11/17 02:03:33;;;;;;;;;1.00;1.00;;;;;-146.44;100.00;58906.56;5057333;28;45521;-57
2022/11/17 02:05:58;;;;;;;;;1.00;1.00;;;;;-146.44;100.00;58906.56;5043645;28;45487;-56
2022/11/17 02:08:29;;;;;;;;;0.67;0.67;;;;;-146.44;100.00;58906.56;5056800;28;45434;-56
2022/11/17 02:10:55;;;;;;;;;1.00;1.00;;;;;-146.44;100.00;58906.56;5057590;28;45456;-56
2022/11/17 02:13:21;;;;;;;;;0.33;0.33;;;;;-146.44;100.00;58906.56;5057377;28;45643;-56
2022/11/17 02:15:47;;;;;;;;;0.67;0.33;;;;;-146.44;100.00;58906.56;5057049;28;45434;-58
2022/11/17 02:18:13;;;;;;;;;3.00;1.00;;;;;-146.44;100.00;58906.56;5056834;28;45360;-55
2022/11/17 02:21:01;;;;;;;;;1.00;1.00;;;;;-146.44;100.00;58906.56;5057361;28;45391;-55
2022/11/17 02:23:45;;;;;;;;;2.00;2.00;;;;;-146.44;100.00;58906.56;5057139;28;45420;-56
2022/11/17 02:26:29;;;;;;;;;1.00;1.00;;;;;-146.44;100.00;58906.56;5056875;28;46106;-56
2022/11/17 02:29:33;;;;;;;;;2.00;0.33;;;;;-146.44;100.00;58906.56;5056957;28;45428;-58
2022/11/17 02:32:05;;;;;;;;;2.00;0.67;;;;;-146.44;100.00;58906.56;5054811;28;45415;-57
2022/11/17 02:34:57;;;;;;;;;0.67;0.67;;;;;-146.44;100.00;58906.56;5056990;28;45432;-57
2022/11/17 02:37:33;;;;;;;;;4.00;1.00;;;;;-146.44;100.00;58906.56;5056741;28;45566;-57
2022/11/17 02:40:08;;;;;;;;;3.33;0.67;;;;;-146.44;100.00;58906.56;5044206;28;45479;-57
2022/11/17 02:45:32;;;;;;;;;2.67;1.00;;;;;-146.44;100.00;58906.56;5056580;28;45375;-56
2022/11/17 02:48:01;;;;;;;;;3.00;1.33;;;;;-146.44;100.00;58906.56;5056432;28;45509;-55
2022/11/17 02:50:28;;;;;;;;;1.67;0.67;;;;;-146.44;100.00;58906.56;5038101;28;45464;-56
2022/11/17 02:52:55;;;;;;;;;1.00;1.00;;;;;-146.44;100.00;58906.56;5056709;28;45469;-56
2022/11/17 02:55:20;;;;;;;;;2.00;0.00;;;;;-146.44;100.00;58906.56;5056607;28;45602;-57
2022/11/17 02:57:45;;;;;;;;;2.00;0.00;;;;;-146.44;100.00;58906.56;5056227;28;46235;-57
2022/11/17 03:00:14;;;;;;;;;0.67;0.67;;;;;-146.44;100.00;58906.56;5056128;28;45396;-57
2022/11/17 03:02:58;;;;;;;;;2.00;2.00;;;;;-146.44;100.00;58906.56;5056636;28;45333;-55
2022/11/17 03:05:38;;;;;;;;;3.33;1.33;;;;;-146.44;100.00;58906.56;5056613;28;45521;-55
2022/11/17 03:08:35;;;;;;;;;3.00;2.00;;;;;-146.44;100.00;58906.56;5056139;28;46250;-57
2022/11/17 03:11:04;;;;;;;;;1.00;1.00;;;;;-146.44;100.00;58906.56;5056235;28;45437;-57
2022/11/17 03:13:44;;;;;;;;;0.00;0.00;;;;;-146.44;100.00;58906.56;5056254;28;45522;-56
2022/11/17 03:16:18;;;;;;;;;0.00;0.00;;;;;-146.44;100.00;58906.56;5056055;28;45447;-57
2022/11/17 03:19:02;;;;;;;;;0.67;0.67;;;;;-146.44;100.00;58906.56;5056115;28;45772;-56
2022/11/17 03:21:33;;;;;;;;;0.00;0.00;;;;;-146.44;100.00;58906.56;5056040;28;45510;-56
2022/11/17 03:24:11;;;;;;;;;1.00;0.00;;;;;-146.44;100.00;58906.56;5056150;28;45369;-55
2022/11/17 03:26:41;;;;;;;;;0.00;0.00;;;;;-146.44;100.00;58906.56;5056112;28;45411;-55
2022/11/17 03:29:11;;;;;;;;;1.00;1.00;;;;;-146.44;100.00;58906.56;5055959;28;46400;-56
2022/11/17 03:31:38;;;;;;;;;0.00;0.00;;;;;-146.44;100.00;58906.56;5055707;28;45359;-57
2022/11/17 03:34:09;;;;;;;;;2.67;1.00;;;;;-146.44;100.00;58906.56;5055984;28;45403;-57
2022/11/17 03:36:38;;;;;;;;;2.00;1.00;;;;;-146.44;100.00;58906.56;5055811;28;45572;-57
2022/11/17 03:39:22;;;;;;;;;1.00;1.00;;;;;-146.44;100.00;58906.56;5050519;28;47894;-54
2022/11/17 03:41:50;;;;;;;;;1.67;0.00;;;;;-146.44;100.00;58906.56;5049427;28;45499;-58
2022/11/17 03:44:19;;;;;;;;;0.33;0.00;;;;;-146.44;100.00;58906.56;5055718;28;45450;-56
2022/11/17 03:46:48;;;;;;;;;0.00;0.00;;;;;-146.44;100.00;58906.56;5055726;28;45410;-56
2022/11/17 03:49:25;;;;;;;;;1.00;0.00;;;;;-146.44;100.00;58906.56;5055441;28;45459;-55
2022/11/17 03:51:51;;;;;;;;;0.00;0.00;;;;;-146.44;100.00;58906.56;5055938;28;45452;-55
2022/11/17 03:54:17;;;;;;;;;0.00;0.00;;;;;-146.44;100.00;58906.56;5055538;28;45483;-56
2022/11/17 03:56:59;;;;;;;;;1.00;1.00;;;;;-146.44;100.00;58906.56;5055851;28;45395;-57
2022/11/17 03:59:35;;;;;;;;;0.00;0.00;;;;;-146.44;100.00;58906.56;5054944;28;45449;-55
2022/11/17 04:02:01;;;;;;;;;0.00;0.00;;;;;-146.44;100.00;58906.56;5055478;28;45497;-55
2022/11/17 04:05:04;;;;;;;;;0.00;0.00;;;;;-146.44;100.00;58906.56;5055389;28;45506;-55
2022/11/17 04:07:11;;;;;;;;;0.00;0.00;;;;;-146.44;100.00;58906.56;5055519;28;45600;-55
2022/11/17 04:09:37;;;;;;;;;0.00;0.00;;;;;-146.44;100.00;58906.56;5054898;28;45507;-57
2022/11/17 04:17:30;;;;;;;;;1.00;1.00;;;;;-146.44;100.00;58906.56;5055393;28;45515;-54
2022/11/17 04:19:55;;;;;;;;;1.33;0.33;;;;;-146.44;100.00;58906.56;5055142;28;45903;-56
2022/11/17 04:22:20;;;;;;;;;0.00;0.00;;;;;-146.44;100.00;58906.56;5053926;28;45416;-56
2022/11/17 04:24:46;;;;;;;;;1.00;0.00;;;;;-146.44;100.00;58906.56;5055107;28;45404;-57
2022/11/17 04:29:54;;;;;;;;;1.00;0.00;;;;;-146.44;100.00;58906.56;5055050;28;45446;-58
2022/11/17 04:32:20;;;;;;;;;0.00;0.00;;;;;-146.44;100.00;58906.56;5054767;28;53805;-57
2022/11/17 04:34:45;;;;;;;;;0.67;0.00;;;;;-146.44;100.00;58906.56;5054993;28;45422;-56
2022/11/17 04:37:16;;;;;;;;;1.00;1.00;;;;;-146.44;100.00;58906.56;5054881;28;45512;-56
2022/11/17 04:39:42;;;;;;;;;0.00;0.00;;;;;-146.44;100.00;58906.56;5044941;28;46109;-57
2022/11/17 04:42:07;;;;;;;;;2.67;1.67;;;;;-146.44;100.00;58906.56;5050822;28;45481;-58
2022/11/17 04:44:32;;;;;;;;;0.33;0.33;;;;;-146.44;100.00;58906.56;5055024;28;45411;-55
2022/11/17 04:47:00;;;;;;;;;0.00;0.00;;;;;-146.44;100.00;58906.56;5055058;28;46132;-57
2022/11/17 04:49:26;;;;;;;;;0.00;0.00;;;;;-146.44;100.00;58906.56;5054936;28;46011;-57
2022/11/17 04:51:52;;;;;;;;;2.00;0.00;;;;;-146.44;100.00;58906.56;5053800;28;45368;-55
2022/11/17 04:54:21;;;;;;;;;0.00;0.00;;;;;-146.44;100.00;58906.56;5037025;28;45510;-56
2022/11/17 04:56:47;;;;;;;;;0.00;0.00;;;;;-146.44;100.00;58906.56;5054925;28;45636;-56
2022/11/17 04:59:12;;;;;;;;;0.33;0.33;;;;;-146.44;100.00;58906.56;5054735;28;45410;-56
2022/11/17 05:01:38;;;;;;;;;2.00;0.67;;;;;-146.44;100.00;58906.56;5054558;28;45356;-57
2022/11/17 05:04:08;;;;;;;;;2.00;0.00;;;;;-146.44;100.00;58906.56;5054792;28;45479;-52
2022/11/17 05:06:37;;;;;;;;;0.00;0.00;;;;;-146.44;100.00;58906.56;5054914;28;45514;-56
2022/11/17 05:09:06;;;;;;;;;1.33;0.33;;;;;-146.44;100.00;58906.56;5054534;28;45391;-57
2022/11/17 05:14:18;;;;;;;;;1.00;1.00;;;;;-146.44;100.00;58906.56;5057778;28;45441;-55
2022/11/17 05:19:29;;;;;;;;;0.33;0.33;;;;;-146.44;100.00;58906.56;5058061;28;45507;-56
2022/11/17 05:21:55;;;;;;;;;0.00;0.00;;;;;-146.44;100.00;58906.56;5058033;28;45512;-56
2022/11/17 05:24:20;;;;;;;;;0.00;0.00;;;;;-146.44;100.00;58906.56;5058064;28;45366;-56
2022/11/17 05:26:48;;;;;;;;;0.00;0.00;;;;;-146.44;100.00;58906.56;5058096;28;45559;-55
2022/11/17 05:29:15;;;;;;;;;0.00;0.00;;;;;-146.44;100.00;58906.56;5057986;28;45420;-54
2022/11/17 05:31:41;;;;;;;;;2.33;0.00;;;;;-146.44;100.00;58906.56;5057545;28;45593;-55
2022/11/17 05:34:09;;;;;;;;;0.00;0.00;;;;;-146.44;100.00;58906.56;5057904;28;45479;-57
2022/11/17 05:36:34;;;;;;;;;2.33;0.00;;;;;-146.44;100.00;58906.56;5039763;28;45683;-55
2022/11/17 05:39:00;;;;;;;;;3.00;1.00;;;;;-146.44;100.00;58906.56;5057427;28;45724;-57
2022/11/17 05:41:27;;;;;;;;;1.00;0.00;;;;;-146.44;100.00;58906.56;5057713;28;45667;-55
2022/11/17 05:43:53;;;;;;;;;2.00;1.00;;;;;-146.44;100.00;58906.56;5058008;28;45479;-54
2022/11/17 05:46:20;;;;;;;;;0.00;0.00;;;;;-146.44;100.00;58906.56;5057787;28;45559;-55
2022/11/17 05:48:49;;;;;;;;;1.00;1.00;;;;;-146.44;100.00;58906.56;5057413;28;45547;-56
2022/11/17 05:51:15;;;;;;;;;3.00;0.00;;;;;-146.44;100.00;58906.56;5057406;28;45573;-55
2022/11/17 05:53:40;;;;;;;;;1.00;0.00;;;;;-146.44;100.00;58906.56;5057563;28;45330;-58
2022/11/17 05:56:23;;;;;;;;;0.00;0.00;;;;;-146.44;100.00;58906.56;5057415;28;45464;-57
2022/11/17 05:58:54;;;;;;;;;1.67;1.00;;;;;-146.44;100.00;58906.56;5057193;28;46462;-53
2022/11/17 06:01:21;;;;;;;;;2.00;1.00;;;;;-146.44;100.00;58906.56;5056991;28;45509;-55
2022/11/17 06:03:52;;;;;;;;;4.00;0.00;;;;;-146.44;100.00;58906.56;5057638;28;45415;-53
2022/11/17 06:06:17;;;;;;;;;0.00;0.00;;;;;-146.44;100.00;58906.56;5057226;28;45383;-55
2022/11/17 06:08:43;;;;;;;;;0.00;0.00;;;;;-146.44;100.00;58906.56;5038994;28;46259;-56
2022/11/17 06:11:08;;;;;;;;;0.00;0.00;;;;;-146.44;100.00;58906.56;5056748;28;53793;-57
2022/11/17 06:13:33;;;;;;;;;2.67;1.00;;;;;-146.44;100.00;58906.56;5057215;28;45352;-55
2022/11/17 06:16:02;;;;;;;;;2.00;0.00;;;;;-146.44;100.00;58906.56;5057038;28;45408;-57
2022/11/17 06:18:36;;;;;;;;;0.33;0.33;;;;;-146.44;100.00;58906.56;5057062;28;46135;-57
2022/11/17 06:21:02;;;;;;;;;1.00;0.00;;;;;-146.44;100.00;58906.56;5056990;28;45510;-55
2022/11/17 06:23:30;;;;;;;;;0.00;0.00;;;;;-146.44;100.00;58906.56;5056645;28;45532;-56
2022/11/17 06:25:58;;;;;;;;;0.00;0.00;;;;;-146.44;100.00;58906.56;5056877;28;45463;-54
2022/11/17 06:28:28;;;;;;;;;0.67;0.00;;;;;-146.44;100.00;58906.56;5056694;28;45475;-57
2022/11/17 06:30:54;;;;;;;;;1.00;1.00;;;;;-146.44;100.00;58906.56;5056721;28;45449;-57
2022/11/17 06:33:20;;;;;;;;;1.00;1.00;;;;;-146.44;100.00;58906.56;5056717;28;45395;-57
2022/11/17 06:35:48;;;;;;;;;0.00;0.00;;;;;-146.44;100.00;58906.56;5057068;28;45389;-57
2022/11/17 06:38:13;;;;;;;;;0.00;0.00;;;;;-146.44;100.00;58906.56;5044381;28;45660;-56
2022/11/17 06:40:38;;;;;;;;;1.33;0.00;;;;;-146.44;100.00;58906.56;5054466;28;45352;-57
2022/11/17 06:43:08;;;;;;;;;0.00;0.00;;;;;-146.44;100.00;58906.56;5057045;28;45381;-56
2022/11/17 06:45:44;;;;;;;;;0.33;0.33;;;;;-146.44;100.00;58906.56;5056405;28;45446;-57
2022/11/17 06:48:12;;;;;;;;;0.67;0.67;;;;;-146.44;100.00;58906.56;5056439;28;45459;-55
2022/11/17 06:50:37;;;;;;;;;0.00;0.00;;;;;-146.44;100.00;58906.56;5056072;28;45397;-56
2022/11/17 06:53:06;;;;;;;;;0.00;0.00;;;;;-146.44;100.00;58906.56;5056520;28;45456;-56
2022/11/17 06:55:32;;;;;;;;;2.67;1.00;;;;;-146.44;100.00;58906.56;5056522;28;45568;-55
2022/11/17 06:58:02;;;;;;;;;2.00;2.00;;;;;-146.44;100.00;58906.56;5056156;28;46472;-55
2022/11/17 07:00:33;;;;;;;;;1.67;1.00;;;;;-146.44;100.00;58906.56;5055746;28;45522;-56
2022/11/17 07:03:03;;;;;;;;;2.00;0.00;;;;;-146.44;100.00;58906.56;5056054;28;45453;-55
2022/11/17 07:05:29;;;;;;;;;1.00;1.00;;;;;-146.44;100.00;58906.56;5055967;28;45550;-56
2022/11/17 07:07:59;;;;;;;;;1.00;1.00;;;;;-146.44;100.00;58906.56;5055784;28;45592;-57
2022/11/17 07:10:26;;;;;;;;;0.33;0.33;;;;;-146.44;100.00;58906.56;5055021;28;45507;-53
2022/11/17 07:12:51;;;;;;;;;0.00;0.00;;;;;-146.44;100.00;58906.56;5055988;28;45398;-57
2022/11/17 07:15:17;;;;;;;;;3.00;1.00;;;;;-146.44;100.00;58906.56;5056150;28;45446;-54
2022/11/17 07:17:42;;;;;;;;;0.67;0.67;;;;;-146.44;100.00;58906.56;5055996;28;46271;-56
2022/11/17 07:20:09;;;;;;;;;0.33;0.33;;;;;-146.44;100.00;58906.56;5056083;28;45340;-57
2022/11/17 07:22:35;;;;;;;;;2.33;1.00;;;;;-146.44;100.00;58906.56;5056333;28;45462;-58
2022/11/17 07:25:00;;;;;;;;;0.00;0.00;;;;;-146.44;100.00;58906.56;5055818;28;45404;-58
2022/11/17 07:27:25;;;;;;;;;1.67;0.67;;;;;-146.44;100.00;58906.56;5055885;28;46140;-56
2022/11/17 07:29:50;;;;;;;;;3.00;1.00;;;;;-146.44;100.00;58906.56;5055408;28;54532;-56
2022/11/17 07:32:16;;;;;;;;;0.00;0.00;;;;;-146.44;100.00;58906.56;5055736;28;46501;-54
2022/11/17 07:34:41;;;;;;;;;2.33;2.00;;;;;-146.44;100.00;58906.56;5054340;28;45422;-56
2022/11/17 07:37:06;;;;;;;;;1.00;1.00;;;;;-146.44;100.00;58906.56;5052411;28;55684;-56
2022/11/17 07:39:32;;;;;;;;;3.00;1.00;;;;;-146.44;100.00;58906.56;5044720;28;45463;-52
2022/11/17 07:41:58;;;;;;;;;1.67;1.00;;;;;-146.44;100.00;58906.56;5055698;28;45465;-56
2022/11/17 07:44:24;;;;;;;;;1.00;1.00;;;;;-146.44;100.00;58906.56;5055815;28;45489;-57
2022/11/17 07:46:49;;;;;;;;;0.67;0.00;;;;;-146.44;100.00;58906.56;5055522;28;45374;-57
2022/11/17 07:49:14;;;;;;;;;2.33;1.00;;;;;-146.44;100.00;58906.56;5055497;28;45448;-56
2022/11/17 07:51:40;;;;;;;;;1.00;0.00;;;;;-146.44;100.00;58906.56;5055790;28;45297;-55
2022/11/17 07:54:05;;;;;;;;;2.00;1.00;;;;;-146.44;100.00;58906.56;5055730;28;45442;-57
2022/11/17 07:56:30;;;;;;;;;3.33;3.00;;;;;-146.44;100.00;58906.56;5055694;28;46059;-56
2022/11/17 07:58:56;;;;;;;;;1.33;1.33;;;;;-146.44;100.00;58906.56;5055335;28;45488;-56
2022/11/17 08:01:21;;;;;;;;;4.67;3.67;;;;;-146.44;100.00;58906.56;5055464;28;45420;-56
2022/11/17 08:03:46;;;;;;;;;2.33;1.00;;;;;-146.44;100.00;58906.56;5055466;28;45685;-56
2022/11/17 08:06:12;;;;;;;;;3.00;2.00;;;;;-146.44;100.00;58906.56;5055031;28;45475;-55
2022/11/17 08:08:38;;;;;;;;;3.00;2.00;;;;;-146.44;100.00;58906.56;5055650;28;45376;-60
2022/11/17 08:11:09;;;;;;;;;2.00;2.00;;;;;-146.44;100.00;58906.56;5055258;28;45453;-58
2022/11/17 08:13:35;;;;;;;;;2.33;2.00;;;;;-146.44;100.00;58906.56;5055196;28;45489;-58
2022/11/17 08:16:01;;;;;;;;;2.67;2.67;;;;;-146.44;100.00;58906.56;5054887;28;46299;-57
2022/11/17 08:18:28;;;;;;;;;4.00;3.00;;;;;-146.44;100.00;58906.56;5055237;28;45436;-55
2022/11/17 08:21:08;;;;;;;;;4.00;1.67;;;;;-146.44;100.00;58906.56;5055373;28;45456;-57
2022/11/17 08:23:34;;;;;;;;;3.33;1.67;;;;;-146.44;100.00;58906.56;5042536;28;45468;-57
2022/11/17 08:26:02;;;;;;;;;2.00;0.33;;;;;-146.44;100.00;58906.56;5054744;28;45376;-56
2022/11/17 08:28:27;;;;;;;;;1.33;1.00;;;;;-146.44;100.00;58906.56;5055002;28;45481;-56
2022/11/17 08:30:53;;;;;;;;;0.33;0.33;;;;;-146.44;100.00;58906.56;5054725;28;45412;-57
2022/11/17 08:33:18;;;;;;;;;2.00;1.00;;;;;-146.44;100.00;58906.56;5055277;28;45454;-57
2022/11/17 08:35:43;;;;;;;;;0.33;0.33;;;;;-146.44;100.00;58906.56;5055149;28;45520;-56
2022/11/17 08:38:14;;;;;;;;;2.00;0.00;;;;;-146.44;100.00;58906.56;5043436;28;45344;-55
2022/11/17 08:40:40;;;;;;;;;0.00;0.00;;;;;-146.44;100.00;58906.56;5052815;28;45446;-56
2022/11/17 08:43:05;;;;;;;;;2.67;1.00;;;;;-146.44;100.00;58906.56;5054864;28;45397;-54
2022/11/17 08:45:30;;;;;;;;;2.00;2.00;;;;;-146.44;100.00;58906.56;5055579;28;51809;-56
2022/11/17 08:47:56;;;;;;;;;0.33;0.33;;;;;-146.44;100.00;58906.56;5058280;28;47321;-54
2022/11/17 08:50:22;;;;;;;;;3.67;2.67;;;;;-146.44;100.00;58906.56;5058299;28;45412;-58
2022/11/17 08:52:47;;;;;;;;;7.00;5.67;;;;;-146.44;100.00;58906.56;5058333;28;45622;-57
2022/11/17 08:55:13;;;;;;;;;4.00;2.00;;;;;-146.44;100.00;58906.56;5058461;28;46009;-57
2022/11/17 08:57:38;;;;;;;;;4.33;3.00;;;;;-146.44;100.00;58906.56;5058299;28;45416;-56
2022/11/17 09:00:05;;;;;;;;;2.00;1.00;;;;;-146.44;100.00;58906.56;5058020;28;45615;-55
2022/11/17 09:02:30;;;;;;;;;2.33;1.00;;;;;-146.44;100.00;58906.56;5058096;28;45380;-54
2022/11/17 09:04:55;;;;;;;;;2.00;2.00;;;;;-146.44;100.00;58906.56;5057849;28;46108;-56
2022/11/17 09:07:21;;;;;;;;;2.00;2.00;;;;;-146.44;100.00;58906.56;5058231;28;45431;-57
2022/11/17 09:09:47;;;;;;;;;5.33;2.00;;;;;-146.44;100.00;58906.56;5057908;28;45443;-56
2022/11/17 09:12:13;;;;;;;;;1.00;1.00;;;;;-146.44;100.00;58906.56;5058259;28;45593;-55
2022/11/17 09:14:38;;;;;;;;;2.00;2.00;;;;;-146.44;100.00;58906.56;5057574;28;45624;-57
2022/11/17 09:17:03;;;;;;;;;2.33;2.33;;;;;-146.44;100.00;58906.56;5057687;28;45560;-54
2022/11/17 09:19:29;;;;;;;;;3.00;3.00;;;;;-146.44;100.00;58906.56;5057226;28;57080;-56
2022/11/17 09:21:54;;;;;;;;;3.33;3.33;;;;;-146.44;100.00;58906.56;5057999;28;45493;-57
2022/11/17 09:24:20;;;;;;;;;3.67;2.00;;;;;-146.44;100.00;58906.56;5057696;28;45956;-58
2022/11/17 09:26:45;;;;;;;;;1.00;1.00;;;;;-146.44;100.00;58906.56;5056116;28;45507;-56
2022/11/17 09:29:10;;;;;;;;;2.00;1.00;;;;;-146.44;100.00;58906.56;5057806;28;45600;-57
2022/11/17 09:31:36;;;;;;;;;1.00;1.00;;;;;-146.44;100.00;58906.56;5057722;28;45388;-56
2022/11/17 09:34:02;;;;;;;;;0.67;0.33;;;;;-146.44;100.00;58906.56;5057642;28;45454;-57
2022/11/17 09:36:27;;;;;;;;;1.00;1.00;;;;;-146.44;100.00;58906.56;5057799;28;45434;-56
2022/11/17 09:38:53;;;;;;;;;0.67;0.67;;;;;-146.44;100.00;58906.56;5043579;28;45463;-58
2022/11/17 09:41:37;;;;;;;;;1.00;0.00;;;;;-146.44;100.00;58906.56;5057777;28;45629;-57
2022/11/17 09:44:20;;;;;;;;;2.00;0.33;;;;;-146.44;100.00;58906.56;5057198;28;45474;-55
2022/11/17 09:46:55;;;;;;;;;1.67;1.00;;;;;-146.44;100.00;58906.56;5057624;28;45380;-56
2022/11/17 09:49:50;;;;;;;;;1.00;1.00;;;;;-146.44;100.00;58906.56;5057416;28;45408;-57
2022/11/17 09:52:18;;;;;;;;;2.33;2.33;;;;;-146.44;100.00;58906.56;5056297;28;45541;-56
2022/11/17 09:54:54;;;;;;;;;1.00;1.00;;;;;-146.44;100.00;58906.56;5057144;28;45429;-54
2022/11/17 09:57:35;;;;;;;;;2.33;1.33;;;;;-146.44;100.00;58906.56;5056350;28;45725;-57
2022/11/17 10:00:13;;;;;;;;;2.00;1.00;;;;;-146.44;100.00;58906.56;5057463;28;45370;-56
2022/11/17 10:02:39;;;;;;;;;1.00;1.00;;;;;-146.44;100.00;58906.56;5057321;28;45507;-57
2022/11/17 10:05:05;;;;;;;;;2.67;2.67;;;;;-146.44;100.00;58906.56;5057112;28;45416;-57
2022/11/17 10:07:33;;;;;;;;;2.67;2.67;;;;;-146.44;100.00;58906.56;5057285;28;45553;-57
2022/11/17 10:10:02;;;;;;;;;4.00;3.00;;;;;-146.44;100.00;58906.56;5057120;28;45477;-55
2022/11/17 10:12:37;;;;;;;;;1.00;1.00;;;;;-146.44;100.00;58906.56;5057113;28;45622;-56
2022/11/17 10:15:28;;;;;;;;;4.00;1.00;;;;;-146.44;100.00;58906.56;5057001;28;45433;-57
2022/11/17 10:17:53;;;;;;;;;2.00;2.00;;;;;-146.44;100.00;58906.56;5057002;28;45443;-57
2022/11/17 10:20:19;;;;;;;;;1.00;1.00;;;;;-146.44;100.00;58906.56;5057248;28;45419;-57
2022/11/17 10:22:46;;;;;;;;;2.67;1.00;;;;;-146.44;100.00;58906.56;5057052;28;45542;-57
2022/11/17 10:25:42;;;;;;;;;2.00;2.00;;;;;-146.44;100.00;58906.56;5056782;28;46372;-56
2022/11/17 10:28:22;;;;;;;;;2.67;1.67;;;;;-146.44;100.00;58906.56;5030666;28;45657;-57
2022/11/17 10:30:56;;;;;;;;;1.00;1.00;;;;;-146.44;100.00;58906.56;5056898;28;45582;-57
2022/11/17 10:33:51;;;;;;;;;1.00;1.00;;;;;-146.44;100.00;58906.56;5056929;28;45543;-56
2022/11/17 10:36:21;;;;;;;;;1.00;1.00;;;;;-146.44;100.00;58906.56;5056201;28;45513;-57
2022/11/17 10:38:49;;;;;;;;;1.67;1.00;;;;;-146.44;100.00;58906.56;5042426;28;45497;-57
2022/11/17 10:41:38;;;;;;;;;2.00;2.00;;;;;-146.44;100.00;58906.56;5056873;28;45467;-57
2022/11/17 10:44:17;;;;;;;;;2.00;1.00;;;;;-146.44;100.00;58906.56;5056484;28;45460;-54
2022/11/17 10:47:03;;;;;;;;;1.00;1.00;;;;;-146.44;100.00;58906.56;5056562;28;45478;-54
2022/11/17 10:49:39;;;;;;;;;3.00;2.00;;;;;-146.44;100.00;58906.56;5056171;28;45488;-53
2022/11/17 10:52:13;;;;;;;;;2.00;2.00;;;;;-146.44;100.00;58906.56;5056274;28;45390;-55
2022/11/17 10:54:38;;;;;;;;;2.33;2.33;;;;;-146.44;100.00;58906.56;5056520;28;45585;-56
2022/11/17 10:57:13;;;;;;;;;2.00;2.00;;;;;-146.44;100.00;58906.56;5056390;28;45957;-56
2022/11/17 10:59:45;;;;;;;;;2.00;2.00;;;;;-146.44;100.00;58906.56;5056223;28;45548;-57
2022/11/17 11:02:32;;;;;;;;;2.33;2.33;;;;;-146.44;100.00;58906.56;5055805;28;45470;-55
2022/11/17 11:05:20;;;;;;;;;1.33;1.33;;;;;-146.44;100.00;58906.56;5044432;28;45495;-54
2022/11/17 11:07:45;;;;;;;;;2.67;2.00;;;;;-146.44;100.00;58906.56;5037906;28;46762;-57
2022/11/17 11:10:33;;;;;;;;;4.00;4.00;;;;;-146.44;100.00;58906.56;5055483;28;45378;-53
2022/11/17 11:13:21;;;;;;;;;4.00;3.00;;;;;-146.44;100.00;58906.56;5056051;28;45433;-56
2022/11/17 11:15:47;;;;;;;;;2.00;2.00;;;;;-146.44;100.00;58906.56;5056275;28;45849;-56
2022/11/17 11:18:16;;;;;;;;;0.00;0.00;;;;;-146.44;100.00;58906.56;5055678;28;45391;-54
2022/11/17 11:20:41;;;;;;;;;2.00;1.00;;;;;-146.44;100.00;58906.56;5056065;28;45612;-55
2022/11/17 11:23:41;;;;;;;;;1.33;0.33;;;;;-146.44;100.00;58906.56;5056213;28;45547;-57
2022/11/17 11:26:14;;;;;;;;;4.00;2.33;;;;;-146.44;100.00;58906.56;5055590;28;45466;-56
2022/11/17 11:28:39;;;;;;;;;1.00;1.00;;;;;-146.44;100.00;58906.56;5055617;28;45493;-56
2022/11/17 11:31:43;;;;;;;;;1.00;1.00;;;;;-146.44;100.00;58906.56;5055866;28;45515;-54
2022/11/17 11:34:22;;;;;;;;;2.00;1.00;;;;;-146.44;100.00;58906.56;4984396;28;45490;-56
2022/11/17 11:36:59;;;;;;;;;3.00;2.00;;;;;-146.44;100.00;58906.56;4993446;28;45373;-56
2022/11/17 11:39:50;;;;;;;;;1.00;1.00;;;;;-146.44;100.00;58906.56;5020070;28;45938;-56
2022/11/17 11:42:32;;;;;;;;;1.33;1.33;;;;;-146.44;100.00;58906.56;5055364;28;45407;-56
2022/11/17 11:45:00;;;;;;;;;1.67;1.00;;;;;-146.44;100.00;58906.56;5055821;28;45327;-56
2022/11/17 11:47:45;;;;;;;;;1.67;1.67;;;;;-146.44;100.00;58906.56;5055266;28;45462;-56